Time;durP1;ratioP1;P1;durP2;ratioP2;P2;SDS_P1;SDS_P2;PMS_P1;PMS_P2;Temp;Humidity;BMP_temperature;BMP_pressure;BME280_temperature;BME280_humidity;BME280_pressure;Samples;Min_cycle;Max_cycle;Signal;HPM_P1;HPM_P2
2023/12/08 02:23:05;;;;;;;39.47;18.33;;;0.80;99.90;;;;;;8780990;22;20699;-89
2023/12/08 02:26:51;;;;;;;40.83;18.87;;;0.80;99.90;;;;;;7826479;28;20555;-90
2023/12/08 02:30:37;;;;;;;36.80;17.70;;;0.80;99.90;;;;;;7854656;28;20232;-90
2023/12/08 02:34:26;;;;;;;40.23;18.53;;;0.70;99.90;;;;;;7862232;28;20232;-89
2023/12/08 02:38:18;;;;;;;35.03;18.17;;;0.90;99.90;;;;;;7868375;28;20223;-90
2023/12/08 02:42:04;;;;;;;34.30;17.80;;;0.70;99.90;;;;;;7849651;28;20212;-90
2023/12/08 02:45:50;;;;;;;40.67;19.20;;;0.70;99.90;;;;;;7837168;28;20181;-90
2023/12/08 02:49:36;;;;;;;37.67;18.57;;;0.70;99.90;;;;;;7849466;28;20686;-90
2023/12/08 02:53:21;;;;;;;34.37;18.17;;;0.60;99.90;;;;;;7858121;28;20215;-89
2023/12/08 02:57:07;;;;;;;36.97;18.93;;;0.60;99.90;;;;;;7862347;28;20182;-90
2023/12/08 03:00:53;;;;;;;37.30;18.63;;;0.60;99.90;;;;;;7849392;28;20177;-90
2023/12/08 03:04:38;;;;;;;39.80;19.57;;;0.60;99.90;;;;;;7866411;28;20633;-90
2023/12/08 03:08:24;;;;;;;35.30;17.93;;;0.60;99.90;;;;;;7848993;28;20597;-90
2023/12/08 03:12:09;;;;;;;31.87;16.97;;;0.60;99.90;;;;;;7848552;28;20193;-89
2023/12/08 03:15:55;;;;;;;35.17;17.87;;;0.50;99.90;;;;;;7866565;28;20597;-90
2023/12/08 03:19:41;;;;;;;37.40;18.70;;;0.50;99.90;;;;;;7849664;28;20239;-90
2023/12/08 03:23:26;;;;;;;37.07;17.23;;;0.50;99.90;;;;;;7855336;28;20248;-90
2023/12/08 03:27:12;;;;;;;35.70;16.47;;;0.60;99.90;;;;;;7854455;28;20181;-90
2023/12/08 03:30:58;;;;;;;38.67;17.47;;;0.40;99.90;;;;;;7873599;28;20201;-89
2023/12/08 03:34:43;;;;;;;37.97;17.43;;;0.40;99.90;;;;;;7847679;28;20742;-89
2023/12/08 03:38:29;;;;;;;30.73;15.13;;;0.30;99.90;;;;;;7846573;28;20220;-90
2023/12/08 03:42:14;;;;;;;34.77;15.37;;;0.30;99.90;;;;;;7853676;28;20210;-90
2023/12/08 03:46:00;;;;;;;33.77;16.30;;;0.20;99.90;;;;;;7868840;28;20234;-89
2023/12/08 03:49:45;;;;;;;29.93;15.10;;;0.30;99.90;;;;;;7852515;28;20209;-89
2023/12/08 03:53:34;;;;;;;34.07;14.53;;;0.20;99.90;;;;;;7872955;28;20247;-89
2023/12/08 03:57:20;;;;;;;29.83;15.87;;;0.20;99.90;;;;;;7856225;28;20176;-89
2023/12/08 04:01:06;;;;;;;34.43;15.10;;;0.20;99.90;;;;;;7856662;28;20181;-90
2023/12/08 04:04:51;;;;;;;29.23;14.13;;;0.20;99.90;;;;;;7873945;28;20552;-89
2023/12/08 04:08:37;;;;;;;29.63;13.80;;;0.20;99.90;;;;;;7858081;28;20207;-89
2023/12/08 04:12:23;;;;;;;29.23;14.43;;;0.10;99.90;;;;;;7858333;28;20193;-90
2023/12/08 04:16:09;;;;;;;31.40;14.97;;;0.10;99.90;;;;;;7855828;28;20176;-89
2023/12/08 04:19:55;;;;;;;28.77;14.30;;;0.10;99.90;;;;;;7842535;28;20216;-89
2023/12/08 04:23:40;;;;;;;28.60;13.60;;;0.10;99.90;;;;;;7857954;28;20216;-89
2023/12/08 04:27:48;;;;;;;26.80;13.50;;;0.10;99.90;;;;;;7855351;28;20185;-89
2023/12/08 04:31:34;;;;;;;22.00;11.57;;;0.00;99.90;;;;;;7836602;28;20617;-90
2023/12/08 04:35:19;;;;;;;24.27;12.10;;;0.00;99.90;;;;;;7844641;28;20177;-90
2023/12/08 04:39:05;;;;;;;21.73;10.40;;;0.00;99.90;;;;;;7845169;28;20539;-89
2023/12/08 04:42:50;;;;;;;19.90;10.00;;;-0.10;99.90;;;;;;7856291;28;20200;-89
2023/12/08 04:46:36;;;;;;;25.63;11.13;;;-0.10;99.90;;;;;;7857482;28;20394;-90
2023/12/08 04:50:22;;;;;;;20.07;10.57;;;-0.10;99.90;;;;;;7859715;28;20212;-89
2023/12/08 04:54:07;;;;;;;23.27;11.47;;;-0.10;99.90;;;;;;7869819;28;20204;-90
2023/12/08 04:57:53;;;;;;;20.70;10.87;;;-0.10;99.90;;;;;;7855242;28;20178;-90
2023/12/08 05:01:38;;;;;;;21.77;10.67;;;0.00;99.90;;;;;;7863455;28;20200;-90
2023/12/08 05:05:24;;;;;;;25.40;10.70;;;-0.10;99.90;;;;;;7857235;28;20301;-89
2023/12/08 05:09:10;;;;;;;19.03;10.07;;;-0.10;99.90;;;;;;7870212;28;20232;-90
2023/12/08 05:12:56;;;;;;;18.20;9.60;;;-0.20;99.90;;;;;;7867984;28;20254;-89
2023/12/08 05:16:41;;;;;;;18.23;9.20;;;-0.20;99.90;;;;;;7853465;28;20274;-90
2023/12/08 05:20:27;;;;;;;17.27;8.73;;;-0.20;99.90;;;;;;7851016;28;20214;-89
2023/12/08 05:24:13;;;;;;;18.90;9.13;;;-0.20;99.90;;;;;;7850384;28;20213;-90
2023/12/08 05:27:58;;;;;;;17.47;8.77;;;-0.20;99.90;;;;;;7851319;28;20279;-89
2023/12/08 05:31:44;;;;;;;18.87;9.60;;;-0.20;99.90;;;;;;7848821;28;20224;-89
2023/12/08 05:35:30;;;;;;;20.03;9.80;;;-0.10;99.90;;;;;;7842022;28;20185;-90
2023/12/08 05:39:16;;;;;;;19.50;9.07;;;-0.30;99.90;;;;;;7879917;28;20182;-89
2023/12/08 05:43:01;;;;;;;17.53;8.93;;;-0.30;99.90;;;;;;7856567;28;20205;-90
2023/12/08 05:46:47;;;;;;;19.97;9.57;;;-0.30;99.90;;;;;;7846198;28;20222;-89
2023/12/08 05:50:33;;;;;;;17.40;8.50;;;-0.30;99.90;;;;;;7883709;28;20228;-89
2023/12/08 05:54:18;;;;;;;16.40;8.63;;;-0.30;99.90;;;;;;7883163;28;20207;-89
2023/12/08 05:58:04;;;;;;;17.03;8.77;;;-0.20;99.90;;;;;;7857632;28;20218;-89
2023/12/08 06:01:50;;;;;;;16.73;8.83;;;-0.30;99.90;;;;;;7867883;28;20225;-89
2023/12/08 06:05:36;;;;;;;14.90;8.07;;;-0.30;99.90;;;;;;7834467;28;20189;-90
2023/12/08 06:09:23;;;;;;;16.73;8.47;;;-0.30;99.90;;;;;;7837753;28;20229;-90
2023/12/08 06:13:09;;;;;;;16.87;8.53;;;-0.30;99.90;;;;;;7856827;28;20577;-90
2023/12/08 06:16:54;;;;;;;16.00;8.67;;;-0.30;99.90;;;;;;7855028;28;20215;-90
2023/12/08 06:20:40;;;;;;;16.73;8.40;;;-0.30;99.90;;;;;;7853419;28;20184;-90
2023/12/08 06:24:25;;;;;;;16.67;9.03;;;-0.30;99.90;;;;;;7849969;28;20220;-89
2023/12/08 06:28:11;;;;;;;15.47;8.43;;;-0.30;99.90;;;;;;7850312;28;20180;-90
2023/12/08 06:31:57;;;;;;;16.47;8.67;;;-0.40;99.90;;;;;;7867760;28;20217;-90
2023/12/08 06:35:42;;;;;;;18.23;8.57;;;-0.30;99.90;;;;;;7852609;28;20187;-90
2023/12/08 06:39:28;;;;;;;16.73;8.47;;;-0.40;99.90;;;;;;7841630;28;20237;-89
2023/12/08 06:43:13;;;;;;;18.97;8.53;;;-0.40;99.90;;;;;;7836852;28;20295;-89
2023/12/08 06:46:59;;;;;;;16.13;8.10;;;-0.40;99.90;;;;;;7857489;28;20192;-89
2023/12/08 06:50:44;;;;;;;15.57;8.53;;;-0.40;99.90;;;;;;7852706;28;20210;-90
2023/12/08 06:54:31;;;;;;;17.63;9.10;;;-0.40;99.90;;;;;;7864767;28;20201;-90
2023/12/08 06:58:17;;;;;;;17.10;8.73;;;-0.40;99.90;;;;;;7842327;28;20235;-90
2023/12/08 07:02:03;;;;;;;17.70;8.63;;;-0.30;99.90;;;;;;7849344;28;20243;-90
2023/12/08 07:05:49;;;;;;;20.67;9.60;;;-0.40;99.90;;;;;;7848749;28;20181;-89
2023/12/08 07:09:34;;;;;;;21.43;10.17;;;-0.50;99.90;;;;;;7851240;28;20207;-89
2023/12/08 07:13:20;;;;;;;18.60;9.43;;;-0.50;99.90;;;;;;7867569;28;20197;-89
2023/12/08 07:17:06;;;;;;;18.33;9.77;;;-0.50;99.90;;;;;;7863884;28;20185;-89
2023/12/08 07:20:51;;;;;;;17.37;9.57;;;-0.50;99.90;;;;;;7853996;28;20204;-90
2023/12/08 07:24:38;;;;;;;20.37;9.93;;;-0.50;99.90;;;;;;7849057;28;20302;-90
2023/12/08 07:28:24;;;;;;;23.27;10.53;;;-0.50;99.90;;;;;;7848919;28;20204;-89
2023/12/08 07:32:10;;;;;;;22.30;10.10;;;-0.60;99.90;;;;;;7848354;28;20227;-89
2023/12/08 07:35:55;;;;;;;21.13;10.90;;;-0.60;99.90;;;;;;7844462;28;20485;-88
2023/12/08 07:39:41;;;;;;;20.90;10.57;;;-0.60;99.90;;;;;;7852111;28;20258;-89
2023/12/08 07:43:27;;;;;;;22.13;10.37;;;-0.60;99.90;;;;;;7848844;28;20200;-88
2023/12/08 07:47:13;;;;;;;22.37;9.80;;;-0.70;99.90;;;;;;7848994;28;20184;-89
2023/12/08 07:50:58;;;;;;;19.50;9.57;;;-0.50;99.90;;;;;;7848759;28;20201;-89
2023/12/08 07:54:44;;;;;;;22.33;10.10;;;-0.60;99.90;;;;;;7848229;28;20213;-89
2023/12/08 07:58:30;;;;;;;19.87;10.00;;;-0.70;99.90;;;;;;7866996;28;20176;-89
2023/12/08 08:02:15;;;;;;;22.37;10.23;;;-0.70;99.90;;;;;;7845847;28;20200;-89
2023/12/08 08:06:01;;;;;;;20.63;9.80;;;-0.70;99.90;;;;;;7856524;28;20275;-88
2023/12/08 08:09:46;;;;;;;22.53;10.13;;;-0.70;99.90;;;;;;7854016;28;20487;-90
2023/12/08 08:13:32;;;;;;;20.83;9.70;;;-0.70;99.90;;;;;;7849019;28;20200;-89
2023/12/08 08:17:18;;;;;;;20.27;9.87;;;-0.70;99.90;;;;;;7866081;28;20177;-90
2023/12/08 08:21:04;;;;;;;25.07;10.67;;;-0.70;99.90;;;;;;7847774;28;20178;-89
2023/12/08 08:24:50;;;;;;;22.43;9.97;;;-0.70;99.90;;;;;;7832086;28;20227;-90
2023/12/08 08:28:36;;;;;;;28.10;11.33;;;-0.70;99.90;;;;;;7855780;28;20184;-89
2023/12/08 08:32:22;;;;;;;23.50;11.17;;;-0.70;99.90;;;;;;7853674;28;20213;-88
2023/12/08 08:36:08;;;;;;;25.20;10.87;;;-0.70;99.90;;;;;;7871309;28;20202;-89
2023/12/08 08:39:54;;;;;;;22.33;10.37;;;-0.70;99.90;;;;;;7853580;28;20252;-89
2023/12/08 08:43:40;;;;;;;21.70;10.07;;;-0.60;99.90;;;;;;7843934;28;20352;-90
2023/12/08 08:47:25;;;;;;;23.50;10.20;;;-0.60;99.90;;;;;;7854042;28;20249;-89
2023/12/08 08:51:11;;;;;;;19.23;9.50;;;-0.60;99.90;;;;;;7853214;28;20222;-90
2023/12/08 08:54:57;;;;;;;21.73;10.93;;;-0.60;99.90;;;;;;7870412;28;20263;-90
2023/12/08 08:58:42;;;;;;;20.17;10.13;;;-0.60;99.90;;;;;;7853553;28;20172;-89
2023/12/08 09:02:28;;;;;;;22.80;10.17;;;-0.60;99.90;;;;;;7859820;28;20207;-89
2023/12/08 09:06:14;;;;;;;22.80;10.40;;;-0.50;99.90;;;;;;7841716;28;20176;-89
2023/12/08 09:09:59;;;;;;;23.03;9.60;;;-0.50;99.90;;;;;;7837752;28;20241;-89
2023/12/08 09:13:45;;;;;;;20.40;9.53;;;-0.50;99.90;;;;;;7858046;28;20210;-89
2023/12/08 09:17:31;;;;;;;21.83;10.30;;;-0.50;99.90;;;;;;7853147;28;20270;-89
2023/12/08 09:21:16;;;;;;;18.37;9.27;;;-0.40;99.90;;;;;;7841857;28;20549;-88
2023/12/08 09:25:03;;;;;;;19.00;9.00;;;-0.50;99.90;;;;;;7860192;28;20192;-89
2023/12/08 09:28:49;;;;;;;20.43;9.67;;;-0.40;99.90;;;;;;7870714;28;20173;-89
2023/12/08 09:32:35;;;;;;;17.30;9.50;;;-0.40;99.90;;;;;;7851339;28;20244;-88
2023/12/08 09:36:21;;;;;;;18.47;8.87;;;-0.40;99.90;;;;;;7884915;28;20184;-89
2023/12/08 09:40:08;;;;;;;18.80;8.90;;;-0.40;99.90;;;;;;7853700;28;20194;-88
2023/12/08 09:44:08;;;;;;;17.03;9.03;;;-0.40;99.90;;;;;;7861351;28;20684;-89
2023/12/08 09:47:55;;;;;;;16.67;8.93;;;-0.30;99.90;;;;;;7854944;28;20575;-88
2023/12/08 09:51:40;;;;;;;14.60;8.27;;;-0.30;99.90;;;;;;7851187;28;20209;-89
2023/12/08 09:55:28;;;;;;;18.07;9.10;;;-0.30;99.90;;;;;;7863025;28;20284;-89
2023/12/08 09:59:16;;;;;;;17.87;8.90;;;-0.30;99.90;;;;;;7859104;28;20192;-88
2023/12/08 10:03:02;;;;;;;14.47;8.17;;;-0.30;99.90;;;;;;7850303;28;20231;-88
2023/12/08 10:06:49;;;;;;;17.50;8.13;;;-0.20;99.90;;;;;;7857747;28;20358;-89
2023/12/08 10:10:35;;;;;;;16.80;8.87;;;-0.30;99.90;;;;;;7850670;28;20709;-89
2023/12/08 10:14:22;;;;;;;18.67;9.20;;;-0.30;99.90;;;;;;7836116;28;20209;-89
2023/12/08 10:18:08;;;;;;;18.37;9.33;;;-0.20;99.90;;;;;;7850149;28;20189;-87
2023/12/08 10:22:01;;;;;;;17.27;8.93;;;-0.10;99.90;;;;;;7849908;28;20219;-88
2023/12/08 10:25:48;;;;;;;17.73;9.20;;;-0.20;99.90;;;;;;7845622;28;20275;-88
2023/12/08 10:29:33;;;;;;;17.07;8.97;;;-0.20;99.90;;;;;;7857422;28;20220;-89
2023/12/08 10:33:20;;;;;;;16.80;8.93;;;-0.20;99.90;;;;;;7867379;28;20196;-89
2023/12/08 10:37:06;;;;;;;21.97;10.23;;;-0.10;99.90;;;;;;7842460;28;20173;-88
2023/12/08 10:40:52;;;;;;;18.20;10.20;;;-0.20;99.90;;;;;;7851155;28;20199;-88
2023/12/08 10:44:38;;;;;;;18.27;9.73;;;0.00;99.90;;;;;;7850040;28;20212;-88
2023/12/08 10:48:40;;;;;;;18.33;9.63;;;-0.10;99.90;;;;;;7858550;28;20231;-91
2023/12/08 10:52:29;;;;;;;19.83;9.73;;;-0.20;99.90;;;;;;7851199;28;20204;-88
2023/12/08 10:56:17;;;;;;;18.60;9.10;;;-0.10;99.90;;;;;;7850445;28;20291;-87
2023/12/08 11:00:12;;;;;;;20.50;10.17;;;-0.10;99.90;;;;;;7868153;28;20180;-86
2023/12/08 11:04:02;;;;;;;19.00;9.67;;;-0.10;99.90;;;;;;7849779;28;20668;-86
2023/12/08 11:07:51;;;;;;;17.17;8.97;;;-0.10;99.90;;;;;;7850448;28;20196;-86
2023/12/08 11:11:47;;;;;;;19.97;9.93;;;-0.10;99.90;;;;;;7867749;28;20291;-87
2023/12/08 11:15:36;;;;;;;17.47;8.53;;;-0.10;99.90;;;;;;7854112;28;20184;-88
2023/12/08 11:19:28;;;;;;;19.20;9.03;;;-0.10;99.90;;;;;;7853425;28;20193;-92
2023/12/08 11:23:14;;;;;;;18.47;9.47;;;0.00;99.90;;;;;;7848477;28;20494;-88
2023/12/08 11:27:28;;;;;;;18.93;9.77;;;0.00;99.90;;;;;;7860865;28;20323;-88
2023/12/08 11:31:39;;;;;;;18.47;9.80;;;0.00;99.90;;;;;;7848935;28;20238;-88
2023/12/08 11:35:28;;;;;;;19.63;9.17;;;0.00;99.90;;;;;;7866487;28;20184;-88
2023/12/08 11:39:33;;;;;;;18.60;9.40;;;0.00;99.90;;;;;;7842020;28;20260;-88
2023/12/08 11:43:22;;;;;;;23.40;10.90;;;0.10;99.90;;;;;;7834129;28;20208;-88
2023/12/08 11:47:09;;;;;;;17.93;8.60;;;0.10;99.90;;;;;;7848701;28;20198;-88
2023/12/08 11:51:00;;;;;;;17.03;8.60;;;0.10;99.90;;;;;;7857876;28;20596;-88
2023/12/08 11:55:21;;;;;;;19.00;9.00;;;0.10;99.90;;;;;;7843976;28;20197;-89
2023/12/08 11:59:08;;;;;;;19.33;8.90;;;0.10;99.90;;;;;;7857588;28;20188;-89
2023/12/08 12:02:55;;;;;;;18.50;8.80;;;0.10;99.90;;;;;;7863953;28;20205;-89
2023/12/08 12:06:43;;;;;;;21.50;10.20;;;0.10;99.90;;;;;;7852632;28;20188;-88
2023/12/08 12:10:30;;;;;;;18.50;9.67;;;0.10;99.90;;;;;;7853942;28;20215;-88
2023/12/08 12:14:19;;;;;;;17.40;9.23;;;0.10;99.90;;;;;;7874140;28;20279;-88
2023/12/08 12:18:04;;;;;;;18.00;9.73;;;0.10;99.90;;;;;;7843506;28;20541;-88
2023/12/08 12:21:50;;;;;;;19.43;9.47;;;0.10;99.90;;;;;;7853897;28;20239;-88
2023/12/08 12:25:36;;;;;;;18.90;9.47;;;0.20;99.90;;;;;;7857899;28;20601;-89
2023/12/08 12:29:21;;;;;;;20.60;10.43;;;0.20;99.90;;;;;;7870156;28;20614;-89
2023/12/08 12:33:07;;;;;;;19.40;10.13;;;0.20;99.90;;;;;;7871587;28;20660;-89
2023/12/08 12:36:53;;;;;;;19.33;9.60;;;0.30;99.90;;;;;;7853027;28;20184;-89
2023/12/08 12:40:38;;;;;;;19.07;9.80;;;0.30;99.90;;;;;;7849306;28;20228;-90
2023/12/08 12:44:40;;;;;;;21.63;10.63;;;0.30;99.90;;;;;;7850078;28;20208;-89
2023/12/08 12:48:26;;;;;;;22.80;10.73;;;0.30;99.90;;;;;;7870006;28;20184;-91
2023/12/08 12:52:21;;;;;;;18.20;10.03;;;0.40;99.90;;;;;;7868483;28;20274;-90
2023/12/08 12:56:07;;;;;;;18.47;9.53;;;0.60;99.90;;;;;;7873027;28;20176;-90
2023/12/08 12:59:54;;;;;;;19.57;10.20;;;0.50;99.90;;;;;;7855171;28;20177;-90
2023/12/08 13:03:48;;;;;;;21.63;10.97;;;0.60;99.90;;;;;;7878387;28;20196;-90
2023/12/08 13:07:35;;;;;;;19.63;10.37;;;0.70;99.90;;;;;;7886315;28;20168;-90
2023/12/08 13:11:20;;;;;;;25.37;11.70;;;0.70;99.90;;;;;;7874056;28;20192;-90
2023/12/08 13:15:06;;;;;;;22.30;10.93;;;0.70;99.90;;;;;;7854679;28;20175;-89
2023/12/08 13:18:53;;;;;;;19.33;10.40;;;0.70;99.90;;;;;;7854697;28;20188;-90
2023/12/08 13:22:38;;;;;;;22.07;10.97;;;0.60;99.90;;;;;;7854522;28;20208;-89
2023/12/08 13:26:24;;;;;;;21.10;11.20;;;0.70;99.90;;;;;;7872546;28;20169;-89
2023/12/08 13:30:23;;;;;;;20.57;10.93;;;0.70;99.90;;;;;;7854153;28;20197;-90
2023/12/08 13:34:09;;;;;;;20.10;10.20;;;0.60;99.90;;;;;;7854415;28;20204;-90
2023/12/08 13:37:54;;;;;;;23.33;11.50;;;0.70;99.90;;;;;;7854015;28;20181;-90
2023/12/08 13:41:40;;;;;;;22.47;10.43;;;0.70;99.90;;;;;;7874942;28;20208;-90
2023/12/08 13:45:26;;;;;;;23.83;11.40;;;0.70;99.90;;;;;;7882126;28;20194;-89
2023/12/08 13:49:14;;;;;;;23.37;11.37;;;0.70;99.90;;;;;;7893706;28;20194;-90
2023/12/08 13:53:02;;;;;;;18.57;10.67;;;0.80;99.90;;;;;;7822932;28;20607;-90
2023/12/08 13:56:48;;;;;;;22.57;10.83;;;0.60;99.90;;;;;;7822548;28;20179;-89
2023/12/08 14:00:33;;;;;;;20.17;10.87;;;0.60;99.90;;;;;;7844555;28;20189;-89
2023/12/08 14:04:19;;;;;;;21.53;11.23;;;0.60;99.90;;;;;;7866658;28;20196;-89
2023/12/08 14:08:05;;;;;;;23.20;11.03;;;0.60;99.90;;;;;;7856330;28;20672;-89
2023/12/08 14:11:51;;;;;;;24.80;11.57;;;0.60;99.90;;;;;;7872295;28;20695;-90
2023/12/08 14:15:37;;;;;;;21.27;11.87;;;0.60;99.90;;;;;;7863673;28;20231;-90
2023/12/08 14:19:22;;;;;;;22.53;11.93;;;0.60;99.90;;;;;;7852826;28;20193;-89
2023/12/08 14:23:08;;;;;;;20.70;11.43;;;0.60;99.90;;;;;;7870505;28;20303;-89
2023/12/08 14:26:55;;;;;;;25.37;11.90;;;0.60;99.90;;;;;;7869336;28;20184;-89
2023/12/08 14:30:40;;;;;;;24.13;12.13;;;0.60;99.90;;;;;;7869504;28;20566;-90
2023/12/08 14:34:46;;;;;;;22.03;12.00;;;0.60;99.90;;;;;;7852462;28;20204;-89
2023/12/08 14:38:32;;;;;;;20.87;11.93;;;0.60;99.90;;;;;;7852682;28;20173;-89
2023/12/08 14:42:17;;;;;;;28.30;12.23;;;0.60;99.90;;;;;;7852461;28;20283;-89
2023/12/08 14:46:03;;;;;;;23.73;11.43;;;0.50;99.90;;;;;;7852179;28;20184;-89
2023/12/08 14:49:49;;;;;;;25.17;12.93;;;0.50;99.90;;;;;;7852074;28;20741;-89
2023/12/08 14:53:49;;;;;;;24.30;12.37;;;0.50;99.90;;;;;;7852695;28;20225;-89
2023/12/08 14:57:34;;;;;;;22.00;11.27;;;0.50;99.90;;;;;;7870243;28;20153;-89
2023/12/08 15:01:21;;;;;;;22.90;12.30;;;0.40;99.90;;;;;;7852359;28;20184;-89
2023/12/08 15:05:08;;;;;;;25.67;13.13;;;0.50;99.90;;;;;;7863302;28;20181;-90
2023/12/08 15:08:54;;;;;;;27.00;13.40;;;0.40;99.90;;;;;;7868787;28;20169;-90
2023/12/08 15:13:02;;;;;;;22.70;12.33;;;0.40;99.90;;;;;;7868486;28;20678;-90
2023/12/08 15:16:48;;;;;;;27.53;14.17;;;0.40;99.90;;;;;;7869245;28;20157;-90
2023/12/08 15:20:51;;;;;;;25.77;12.83;;;0.40;99.90;;;;;;7851801;28;20185;-89
2023/12/08 15:24:38;;;;;;;30.60;13.63;;;0.40;99.90;;;;;;7851324;28;20220;-88
2023/12/08 15:28:23;;;;;;;28.30;14.77;;;0.40;99.90;;;;;;7851350;28;20189;-89
2023/12/08 15:32:10;;;;;;;27.63;14.10;;;0.40;99.90;;;;;;7869385;28;20212;-89
2023/12/08 15:35:58;;;;;;;25.97;13.37;;;0.50;99.90;;;;;;7874328;28;20192;-89
2023/12/08 15:39:43;;;;;;;28.03;14.37;;;0.40;99.90;;;;;;7857540;28;20196;-89
2023/12/08 15:43:29;;;;;;;30.47;14.40;;;0.40;99.90;;;;;;7836358;28;20209;-89
2023/12/08 15:47:15;;;;;;;28.17;14.00;;;0.40;99.90;;;;;;7844351;28;20488;-89
2023/12/08 15:51:01;;;;;;;29.00;15.40;;;0.40;99.90;;;;;;7828411;28;20209;-89
2023/12/08 15:54:46;;;;;;;33.33;16.00;;;0.40;99.90;;;;;;7826288;28;20332;-90
2023/12/08 15:58:32;;;;;;;32.47;15.83;;;0.40;99.90;;;;;;7826494;28;20182;-90
2023/12/08 16:02:17;;;;;;;30.53;15.07;;;0.40;99.90;;;;;;7850300;28;20213;-90
2023/12/08 16:06:11;;;;;;;32.10;15.07;;;0.30;99.90;;;;;;7857073;28;20188;-89
2023/12/08 16:09:56;;;;;;;31.63;15.87;;;0.40;99.90;;;;;;7856974;28;20282;-90
2023/12/08 16:13:42;;;;;;;37.40;16.73;;;0.40;99.90;;;;;;7856596;28;20198;-90
2023/12/08 16:17:28;;;;;;;33.00;16.70;;;0.40;99.90;;;;;;7874590;28;20173;-90
2023/12/08 16:21:28;;;;;;;34.27;16.40;;;0.40;99.90;;;;;;7856388;28;20604;-90
2023/12/08 16:25:14;;;;;;;32.97;16.27;;;0.40;99.90;;;;;;7856460;28;20220;-90
2023/12/08 16:29:00;;;;;;;33.73;17.33;;;0.40;99.90;;;;;;7856223;28;20184;-90
2023/12/08 16:32:46;;;;;;;34.63;17.33;;;0.40;99.90;;;;;;7874070;28;20205;-89
2023/12/08 16:36:31;;;;;;;33.30;17.13;;;0.50;99.90;;;;;;7856059;28;20188;-90
2023/12/08 16:40:17;;;;;;;33.40;16.93;;;0.50;99.90;;;;;;7856206;28;20185;-89
2023/12/08 16:44:02;;;;;;;35.27;16.83;;;0.50;99.90;;;;;;7873656;28;20287;-90
2023/12/08 16:47:48;;;;;;;36.60;18.23;;;0.40;99.90;;;;;;7859089;28;20182;-89
2023/12/08 16:51:34;;;;;;;37.00;18.67;;;0.50;99.90;;;;;;7824679;28;20225;-89
2023/12/08 16:55:19;;;;;;;38.00;18.53;;;0.40;99.90;;;;;;7857728;28;20224;-90
2023/12/08 16:59:05;;;;;;;35.30;18.33;;;0.40;99.90;;;;;;7824489;28;20185;-90
2023/12/08 17:02:51;;;;;;;37.63;18.60;;;0.30;99.90;;;;;;7824336;28;20201;-90
2023/12/08 17:06:36;;;;;;;38.07;17.87;;;0.20;99.90;;;;;;7854386;28;20236;-90
2023/12/08 17:10:22;;;;;;;39.13;18.03;;;0.30;99.90;;;;;;7857452;28;20213;-89
2023/12/08 17:14:07;;;;;;;38.70;18.53;;;0.40;99.90;;;;;;7824107;28;20244;-90
2023/12/08 17:17:56;;;;;;;39.57;18.07;;;0.30;99.90;;;;;;7857370;28;20701;-90
2023/12/08 17:21:42;;;;;;;34.70;16.40;;;0.20;99.90;;;;;;7841870;28;20217;-90
2023/12/08 17:25:27;;;;;;;36.77;17.90;;;0.20;99.90;;;;;;7841924;28;20169;-90
2023/12/08 17:29:13;;;;;;;37.70;17.60;;;0.30;99.90;;;;;;7852560;28;20648;-89
2023/12/08 17:32:58;;;;;;;38.03;18.13;;;0.30;99.90;;;;;;7881563;28;20669;-90
2023/12/08 17:36:44;;;;;;;34.17;17.60;;;0.30;99.90;;;;;;7887883;28;20199;-90
2023/12/08 17:40:30;;;;;;;37.03;18.17;;;0.30;99.90;;;;;;7854902;28;20666;-90
2023/12/08 17:44:15;;;;;;;34.80;17.00;;;0.30;99.90;;;;;;7871981;28;20208;-90
2023/12/08 17:48:01;;;;;;;37.73;17.13;;;0.30;99.90;;;;;;7864624;28;20249;-90
2023/12/08 17:51:48;;;;;;;36.20;17.40;;;0.30;99.90;;;;;;7856188;28;20777;-89
2023/12/08 17:55:40;;;;;;;35.23;17.47;;;0.30;99.90;;;;;;7856190;28;20178;-89
2023/12/08 17:59:25;;;;;;;40.07;18.60;;;0.30;99.90;;;;;;7822597;28;20178;-89
2023/12/08 18:03:11;;;;;;;38.57;18.13;;;0.30;99.90;;;;;;7844217;28;20205;-89
2023/12/08 18:06:57;;;;;;;36.53;17.17;;;0.20;99.90;;;;;;7840338;28;20178;-89
2023/12/08 18:10:42;;;;;;;33.37;16.97;;;0.20;99.90;;;;;;7822549;28;20247;-89
2023/12/08 18:14:28;;;;;;;39.30;18.57;;;0.20;99.90;;;;;;7822713;28;20746;-89
2023/12/08 18:18:14;;;;;;;38.60;17.70;;;0.20;99.90;;;;;;7839574;28;20189;-89
2023/12/08 18:22:00;;;;;;;33.00;16.33;;;0.20;99.90;;;;;;7821916;28;20813;-89
2023/12/08 18:25:45;;;;;;;35.90;17.67;;;0.20;99.90;;;;;;7822030;28;20219;-90
2023/12/08 18:29:31;;;;;;;35.60;16.70;;;0.20;99.90;;;;;;7821975;28;20252;-89
2023/12/08 18:33:17;;;;;;;41.37;17.93;;;0.30;99.90;;;;;;7836983;28;20189;-89
2023/12/08 18:37:02;;;;;;;38.80;17.87;;;0.20;99.90;;;;;;7900562;28;20173;-89
2023/12/08 18:40:48;;;;;;;36.13;17.90;;;0.20;99.90;;;;;;7901856;28;20168;-89
2023/12/08 18:44:36;;;;;;;40.57;18.70;;;0.20;99.90;;;;;;7862102;28;20819;-89
2023/12/08 18:48:21;;;;;;;36.77;17.47;;;0.20;99.90;;;;;;7870468;28;20161;-89
2023/12/08 18:52:07;;;;;;;35.20;18.10;;;0.20;99.90;;;;;;7870138;28;20292;-89
2023/12/08 18:55:53;;;;;;;39.77;18.47;;;0.20;99.90;;;;;;7870104;28;20162;-89
2023/12/08 18:59:40;;;;;;;37.30;18.40;;;0.20;99.90;;;;;;7852345;28;20197;-89
2023/12/08 19:03:26;;;;;;;34.93;17.17;;;0.30;99.90;;;;;;7852300;28;20197;-89
2023/12/08 19:07:12;;;;;;;34.77;17.37;;;0.20;99.90;;;;;;7852413;28;20596;-89
2023/12/08 19:10:58;;;;;;;37.03;17.40;;;0.20;99.90;;;;;;7852391;28;20200;-89
2023/12/08 19:14:44;;;;;;;33.83;17.57;;;0.20;99.90;;;;;;7864272;28;20562;-89
2023/12/08 19:18:30;;;;;;;35.00;18.10;;;0.20;99.90;;;;;;7852250;28;20692;-89
2023/12/08 19:22:15;;;;;;;37.37;17.83;;;0.20;99.90;;;;;;7851740;28;20709;-89
2023/12/08 19:26:04;;;;;;;35.83;17.33;;;0.20;99.90;;;;;;7869579;28;20181;-89
2023/12/08 19:29:53;;;;;;;33.67;17.33;;;0.20;99.90;;;;;;7851965;28;20205;-89
2023/12/08 19:33:39;;;;;;;35.67;17.57;;;0.20;99.90;;;;;;7877276;28;20200;-89
2023/12/08 19:37:25;;;;;;;33.00;17.93;;;0.30;99.90;;;;;;7900985;28;20177;-89
2023/12/08 19:41:11;;;;;;;33.37;16.37;;;0.20;99.90;;;;;;7900711;28;20191;-89
2023/12/08 19:44:56;;;;;;;32.23;16.53;;;0.20;99.90;;;;;;7882372;28;20395;-89
2023/12/08 19:48:42;;;;;;;31.80;15.97;;;0.20;99.90;;;;;;7900640;28;20212;-89
2023/12/08 19:52:28;;;;;;;29.93;16.47;;;0.30;99.90;;;;;;7882650;28;20208;-89
2023/12/08 19:56:14;;;;;;;30.40;15.43;;;0.30;99.90;;;;;;7854416;28;20643;-89
2023/12/08 19:59:59;;;;;;;27.33;15.23;;;0.30;99.90;;;;;;7851801;28;20603;-89
2023/12/08 20:03:45;;;;;;;30.03;14.93;;;0.30;99.90;;;;;;7835153;28;20209;-89
2023/12/08 20:07:31;;;;;;;27.87;14.60;;;0.30;99.90;;;;;;7842877;28;20181;-89
2023/12/08 20:11:17;;;;;;;29.33;15.30;;;0.40;99.90;;;;;;7851834;28;20212;-89
2023/12/08 20:15:04;;;;;;;28.40;15.70;;;0.30;99.90;;;;;;7870874;28;20178;-89
2023/12/08 20:18:50;;;;;;;29.13;15.40;;;0.30;99.90;;;;;;7850980;28;20165;-89
2023/12/08 20:22:36;;;;;;;31.40;15.00;;;0.30;99.90;;;;;;7856355;28;20228;-88
2023/12/08 20:26:23;;;;;;;28.87;15.37;;;0.30;99.90;;;;;;7874528;28;20181;-89
2023/12/08 20:30:09;;;;;;;28.93;15.07;;;0.30;99.90;;;;;;7856497;28;20204;-89
2023/12/08 20:33:55;;;;;;;28.07;14.70;;;0.30;99.90;;;;;;7874215;28;20728;-89
2023/12/08 20:37:40;;;;;;;30.97;15.30;;;0.30;99.90;;;;;;7874313;28;20208;-89
2023/12/08 20:41:26;;;;;;;27.97;14.73;;;0.50;99.90;;;;;;7856080;28;20558;-89
2023/12/08 20:45:12;;;;;;;31.37;14.73;;;0.30;99.90;;;;;;7855870;28;20323;-89
2023/12/08 20:48:57;;;;;;;30.13;15.17;;;0.30;99.90;;;;;;7855848;28;20188;-89
2023/12/08 20:52:43;;;;;;;26.13;14.80;;;0.30;99.90;;;;;;7855604;28;20299;-89
2023/12/08 20:56:36;;;;;;;27.90;14.80;;;0.30;99.90;;;;;;7893569;28;20177;-89
2023/12/08 21:00:31;;;;;;;27.27;14.87;;;0.40;99.90;;;;;;7886979;28;20181;-89
2023/12/08 21:04:17;;;;;;;29.07;14.67;;;0.30;99.90;;;;;;7886956;28;20573;-89
2023/12/08 21:08:03;;;;;;;26.87;13.63;;;0.30;99.90;;;;;;7886577;28;20285;-89
2023/12/08 21:12:04;;;;;;;28.17;14.40;;;0.30;99.90;;;;;;7886406;28;20236;-90
2023/12/08 21:15:49;;;;;;;28.57;14.07;;;0.30;99.90;;;;;;7904394;28;20160;-89
2023/12/08 21:19:35;;;;;;;27.43;14.03;;;0.30;99.90;;;;;;7886340;28;20176;-89
2023/12/08 21:23:20;;;;;;;28.20;14.23;;;0.40;99.90;;;;;;7888457;28;20217;-89
2023/12/08 21:27:08;;;;;;;31.27;15.03;;;0.30;99.90;;;;;;7888070;28;20235;-89
2023/12/08 21:30:54;;;;;;;28.57;14.73;;;0.40;99.90;;;;;;7854322;28;20197;-89
2023/12/08 21:34:39;;;;;;;26.33;13.93;;;0.30;99.90;;;;;;7854056;28;20334;-89
2023/12/08 21:38:26;;;;;;;28.43;14.73;;;0.40;99.90;;;;;;7872315;28;20197;-92
2023/12/08 21:42:12;;;;;;;27.77;14.53;;;0.40;99.90;;;;;;7838369;28;20210;-89
2023/12/08 21:45:57;;;;;;;28.43;14.37;;;0.40;99.90;;;;;;7840842;28;20178;-89